sensor_id;sensor_type;location;lat;lon;timestamp;pressure;altitude;pressure_sealevel;temperature;humidity
67013;BME280;53926;47.406;19.188;2023-03-22T00:00:08;100254.31;;;4.44;100.00
67013;BME280;53926;47.406;19.188;2023-03-22T00:02:40;100259.12;;;4.47;100.00
67013;BME280;53926;47.406;19.188;2023-03-22T00:05:07;100253.69;;;4.42;100.00
67013;BME280;53926;47.406;19.188;2023-03-22T00:07:34;100250.31;;;4.34;100.00
67013;BME280;53926;47.406;19.188;2023-03-22T00:10:04;100250.16;;;4.35;100.00
67013;BME280;53926;47.406;19.188;2023-03-22T00:12:30;100244.16;;;4.43;100.00
67013;BME280;53926;47.406;19.188;2023-03-22T00:14:57;100252.62;;;4.60;100.00
67013;BME280;53926;47.406;19.188;2023-03-22T00:17:25;100249.28;;;4.51;100.00
67013;BME280;53926;47.406;19.188;2023-03-22T00:19:52;100247.50;;;4.52;100.00
67013;BME280;53926;47.406;19.188;2023-03-22T00:22:20;100248.34;;;4.75;100.00
67013;BME280;53926;47.406;19.188;2023-03-22T00:24:47;100241.84;;;4.56;100.00
67013;BME280;53926;47.406;19.188;2023-03-22T00:27:13;100242.03;;;4.46;100.00
67013;BME280;53926;47.406;19.188;2023-03-22T00:29:41;100242.31;;;4.28;100.00
67013;BME280;53926;47.406;19.188;2023-03-22T00:32:08;100233.50;;;4.15;100.00
67013;BME280;53926;47.406;19.188;2023-03-22T00:34:34;100244.19;;;3.95;100.00
67013;BME280;53926;47.406;19.188;2023-03-22T00:37:01;100239.69;;;3.89;100.00
67013;BME280;53926;47.406;19.188;2023-03-22T00:39:28;100241.25;;;3.98;100.00
67013;BME280;53926;47.406;19.188;2023-03-22T00:41:54;100241.63;;;3.79;100.00
67013;BME280;53926;47.406;19.188;2023-03-22T00:44:21;100234.56;;;3.81;100.00
67013;BME280;53926;47.406;19.188;2023-03-22T00:46:48;100238.94;;;3.64;100.00
67013;BME280;53926;47.406;19.188;2023-03-22T00:49:14;100233.94;;;3.54;100.00
67013;BME280;53926;47.406;19.188;2023-03-22T00:51:41;100233.31;;;3.44;100.00
67013;BME280;53926;47.406;19.188;2023-03-22T00:54:08;100231.41;;;3.37;100.00
67013;BME280;53926;47.406;19.188;2023-03-22T00:56:34;100240.41;;;3.33;100.00
67013;BME280;53926;47.406;19.188;2023-03-22T00:59:03;100228.19;;;3.19;100.00
67013;BME280;53926;47.406;19.188;2023-03-22T01:01:30;100235.25;;;3.17;100.00
67013;BME280;53926;47.406;19.188;2023-03-22T01:03:56;100240.41;;;3.25;100.00
67013;BME280;53926;47.406;19.188;2023-03-22T01:06:23;100232.34;;;3.12;100.00
67013;BME280;53926;47.406;19.188;2023-03-22T01:08:50;100237.66;;;3.02;100.00
67013;BME280;53926;47.406;19.188;2023-03-22T01:11:20;100238.62;;;2.93;100.00
67013;BME280;53926;47.406;19.188;2023-03-22T01:13:46;100240.72;;;3.06;100.00
67013;BME280;53926;47.406;19.188;2023-03-22T01:16:13;100246.50;;;2.91;100.00
67013;BME280;53926;47.406;19.188;2023-03-22T01:18:41;100240.56;;;2.99;100.00
67013;BME280;53926;47.406;19.188;2023-03-22T01:21:08;100248.25;;;2.91;100.00
67013;BME280;53926;47.406;19.188;2023-03-22T01:23:35;100242.62;;;2.87;100.00
67013;BME280;53926;47.406;19.188;2023-03-22T01:26:03;100236.53;;;2.88;100.00
67013;BME280;53926;47.406;19.188;2023-03-22T01:28:30;100242.25;;;2.74;100.00
67013;BME280;53926;47.406;19.188;2023-03-22T01:31:00;100232.44;;;2.69;100.00
67013;BME280;53926;47.406;19.188;2023-03-22T01:33:29;100234.69;;;2.72;100.00
67013;BME280;53926;47.406;19.188;2023-03-22T01:35:56;100235.16;;;2.59;100.00
67013;BME280;53926;47.406;19.188;2023-03-22T01:38:22;100227.56;;;2.49;100.00
67013;BME280;53926;47.406;19.188;2023-03-22T01:40:49;100229.97;;;2.43;100.00
67013;BME280;53926;47.406;19.188;2023-03-22T01:43:16;100224.50;;;2.38;100.00
67013;BME280;53926;47.406;19.188;2023-03-22T01:45:46;100220.31;;;2.37;100.00
67013;BME280;53926;47.406;19.188;2023-03-22T01:48:35;100228.00;;;2.28;100.00
67013;BME280;53926;47.406;19.188;2023-03-22T01:53:36;100226.81;;;2.14;100.00
67013;BME280;53926;47.406;19.188;2023-03-22T01:56:04;100224.72;;;2.10;100.00
67013;BME280;53926;47.406;19.188;2023-03-22T01:58:33;100224.88;;;2.08;100.00
67013;BME280;53926;47.406;19.188;2023-03-22T02:01:02;100232.34;;;2.02;100.00
67013;BME280;53926;47.406;19.188;2023-03-22T02:03:37;100217.22;;;1.90;100.00
67013;BME280;53926;47.406;19.188;2023-03-22T02:06:07;100208.66;;;1.82;100.00
67013;BME280;53926;47.406;19.188;2023-03-22T02:08:33;100207.16;;;1.71;100.00
67013;BME280;53926;47.406;19.188;2023-03-22T02:11:02;100206.91;;;1.82;100.00
67013;BME280;53926;47.406;19.188;2023-03-22T02:13:38;100214.03;;;1.96;100.00
67013;BME280;53926;47.406;19.188;2023-03-22T02:36:33;100229.72;;;1.59;100.00
67013;BME280;53926;47.406;19.188;2023-03-22T02:42:26;100231.38;;;1.68;100.00
67013;BME280;53926;47.406;19.188;2023-03-22T02:44:40;100236.81;;;1.65;100.00
67013;BME280;53926;47.406;19.188;2023-03-22T02:47:16;100236.38;;;1.70;100.00
67013;BME280;53926;47.406;19.188;2023-03-22T02:49:53;100245.78;;;1.87;100.00
67013;BME280;53926;47.406;19.188;2023-03-22T02:52:43;100247.25;;;1.64;100.00
67013;BME280;53926;47.406;19.188;2023-03-22T02:55:31;100253.66;;;1.68;100.00
67013;BME280;53926;47.406;19.188;2023-03-22T02:58:02;100251.09;;;1.68;100.00
67013;BME280;53926;47.406;19.188;2023-03-22T03:00:32;100251.56;;;1.89;100.00
67013;BME280;53926;47.406;19.188;2023-03-22T03:03:05;100252.16;;;1.83;100.00
67013;BME280;53926;47.406;19.188;2023-03-22T03:05:43;100250.03;;;1.78;100.00
67013;BME280;53926;47.406;19.188;2023-03-22T03:08:13;100257.94;;;1.59;100.00
67013;BME280;53926;47.406;19.188;2023-03-22T03:10:41;100260.53;;;1.59;100.00
67013;BME280;53926;47.406;19.188;2023-03-22T03:13:16;100251.19;;;1.58;100.00
67013;BME280;53926;47.406;19.188;2023-03-22T03:15:45;100257.56;;;1.72;100.00
67013;BME280;53926;47.406;19.188;2023-03-22T03:29:27;100256.81;;;2.14;100.00
67013;BME280;53926;47.406;19.188;2023-03-22T03:34:33;100249.75;;;2.50;100.00
67013;BME280;53926;47.406;19.188;2023-03-22T03:37:17;100253.78;;;2.53;100.00
67013;BME280;53926;47.406;19.188;2023-03-22T03:40:07;100251.75;;;2.73;100.00
67013;BME280;53926;47.406;19.188;2023-03-22T03:42:38;100249.69;;;2.85;100.00
67013;BME280;53926;47.406;19.188;2023-03-22T03:45:07;100245.50;;;2.84;100.00
67013;BME280;53926;47.406;19.188;2023-03-22T03:47:35;100246.50;;;2.99;100.00
67013;BME280;53926;47.406;19.188;2023-03-22T03:50:03;100243.91;;;3.08;100.00
67013;BME280;53926;47.406;19.188;2023-03-22T03:52:31;100244.25;;;3.04;100.00
67013;BME280;53926;47.406;19.188;2023-03-22T03:54:58;100250.19;;;2.97;100.00
67013;BME280;53926;47.406;19.188;2023-03-22T03:57:25;100252.59;;;2.90;100.00
67013;BME280;53926;47.406;19.188;2023-03-22T03:59:51;100254.72;;;3.11;100.00
67013;BME280;53926;47.406;19.188;2023-03-22T04:02:18;100248.59;;;3.04;100.00
67013;BME280;53926;47.406;19.188;2023-03-22T04:04:44;100262.41;;;3.03;100.00
67013;BME280;53926;47.406;19.188;2023-03-22T04:07:12;100259.81;;;2.95;100.00
67013;BME280;53926;47.406;19.188;2023-03-22T04:09:39;100259.66;;;3.04;100.00
67013;BME280;53926;47.406;19.188;2023-03-22T04:12:06;100261.59;;;2.94;100.00
67013;BME280;53926;47.406;19.188;2023-03-22T04:14:35;100264.97;;;2.95;100.00
67013;BME280;53926;47.406;19.188;2023-03-22T04:17:02;100275.88;;;2.80;100.00
67013;BME280;53926;47.406;19.188;2023-03-22T04:19:29;100276.03;;;2.79;100.00
67013;BME280;53926;47.406;19.188;2023-03-22T04:21:56;100271.25;;;3.09;100.00
67013;BME280;53926;47.406;19.188;2023-03-22T04:24:23;100276.22;;;2.94;100.00
67013;BME280;53926;47.406;19.188;2023-03-22T04:26:49;100269.97;;;3.04;100.00
67013;BME280;53926;47.406;19.188;2023-03-22T04:29:17;100269.00;;;3.14;100.00
67013;BME280;53926;47.406;19.188;2023-03-22T04:31:44;100268.38;;;3.20;100.00
67013;BME280;53926;47.406;19.188;2023-03-22T04:34:11;100259.84;;;3.11;100.00
67013;BME280;53926;47.406;19.188;2023-03-22T04:36:37;100258.56;;;2.99;100.00
67013;BME280;53926;47.406;19.188;2023-03-22T04:39:09;100264.31;;;2.84;100.00
67013;BME280;53926;47.406;19.188;2023-03-22T04:41:37;100254.97;;;2.75;100.00
67013;BME280;53926;47.406;19.188;2023-03-22T04:44:04;100260.87;;;2.67;100.00
67013;BME280;53926;47.406;19.188;2023-03-22T04:46:34;100260.25;;;2.74;100.00
67013;BME280;53926;47.406;19.188;2023-03-22T04:49:01;100267.97;;;2.65;100.00
67013;BME280;53926;47.406;19.188;2023-03-22T04:51:29;100263.66;;;2.74;100.00
67013;BME280;53926;47.406;19.188;2023-03-22T04:53:57;100282.28;;;2.68;100.00
67013;BME280;53926;47.406;19.188;2023-03-22T04:56:24;100281.13;;;2.62;100.00
67013;BME280;53926;47.406;19.188;2023-03-22T04:58:51;100286.50;;;2.85;100.00
67013;BME280;53926;47.406;19.188;2023-03-22T05:01:18;100289.72;;;2.87;100.00
67013;BME280;53926;47.406;19.188;2023-03-22T05:03:45;100282.03;;;3.04;100.00
67013;BME280;53926;47.406;19.188;2023-03-22T05:06:13;100283.81;;;3.12;100.00
67013;BME280;53926;47.406;19.188;2023-03-22T05:08:41;100283.50;;;3.15;100.00
67013;BME280;53926;47.406;19.188;2023-03-22T05:11:13;100286.84;;;3.15;100.00
67013;BME280;53926;47.406;19.188;2023-03-22T05:13:40;100298.44;;;3.19;100.00
67013;BME280;53926;47.406;19.188;2023-03-22T05:16:07;100297.00;;;3.17;100.00
67013;BME280;53926;47.406;19.188;2023-03-22T05:18:34;100297.66;;;3.27;100.00
67013;BME280;53926;47.406;19.188;2023-03-22T05:21:03;100294.59;;;3.40;100.00
67013;BME280;53926;47.406;19.188;2023-03-22T05:23:32;100287.03;;;3.63;100.00
67013;BME280;53926;47.406;19.188;2023-03-22T05:25:58;100298.91;;;3.97;100.00
67013;BME280;53926;47.406;19.188;2023-03-22T05:28:27;100300.25;;;4.33;100.00
67013;BME280;53926;47.406;19.188;2023-03-22T05:30:54;100303.25;;;4.53;100.00
67013;BME280;53926;47.406;19.188;2023-03-22T05:33:22;100303.25;;;4.61;100.00
67013;BME280;53926;47.406;19.188;2023-03-22T05:35:49;100304.31;;;4.66;100.00
67013;BME280;53926;47.406;19.188;2023-03-22T05:38:16;100306.59;;;4.93;100.00
67013;BME280;53926;47.406;19.188;2023-03-22T05:40:43;100306.19;;;5.12;100.00
67013;BME280;53926;47.406;19.188;2023-03-22T05:43:10;100318.56;;;5.40;100.00
67013;BME280;53926;47.406;19.188;2023-03-22T05:45:37;100310.53;;;5.58;100.00
67013;BME280;53926;47.406;19.188;2023-03-22T05:48:04;100304.78;;;5.71;100.00
67013;BME280;53926;47.406;19.188;2023-03-22T05:50:31;100303.19;;;5.85;100.00
67013;BME280;53926;47.406;19.188;2023-03-22T05:52:58;100307.34;;;6.09;100.00
67013;BME280;53926;47.406;19.188;2023-03-22T05:55:25;100307.81;;;6.28;100.00
67013;BME280;53926;47.406;19.188;2023-03-22T05:57:52;100313.66;;;6.66;100.00
67013;BME280;53926;47.406;19.188;2023-03-22T06:00:20;100322.06;;;6.90;100.00
67013;BME280;53926;47.406;19.188;2023-03-22T06:02:48;100321.28;;;7.26;100.00
67013;BME280;53926;47.406;19.188;2023-03-22T06:05:15;100330.00;;;7.46;100.00
67013;BME280;53926;47.406;19.188;2023-03-22T06:07:43;100337.72;;;7.61;100.00
67013;BME280;53926;47.406;19.188;2023-03-22T06:10:11;100342.69;;;7.84;100.00
67013;BME280;53926;47.406;19.188;2023-03-22T06:12:39;100339.72;;;7.87;100.00
67013;BME280;53926;47.406;19.188;2023-03-22T06:15:06;100338.03;;;8.36;100.00
67013;BME280;53926;47.406;19.188;2023-03-22T06:17:33;100344.91;;;8.99;100.00
67013;BME280;53926;47.406;19.188;2023-03-22T06:20:00;100340.78;;;9.52;100.00
67013;BME280;53926;47.406;19.188;2023-03-22T06:22:26;100347.41;;;9.54;100.00
67013;BME280;53926;47.406;19.188;2023-03-22T06:24:55;100350.16;;;10.19;100.00
67013;BME280;53926;47.406;19.188;2023-03-22T06:27:22;100339.53;;;10.34;100.00
67013;BME280;53926;47.406;19.188;2023-03-22T06:29:49;100345.22;;;11.15;100.00
67013;BME280;53926;47.406;19.188;2023-03-22T06:32:20;100340.28;;;13.66;96.32
67013;BME280;53926;47.406;19.188;2023-03-22T06:34:55;100336.91;;;15.96;85.05
67013;BME280;53926;47.406;19.188;2023-03-22T06:37:22;100344.50;;;16.37;68.37
67013;BME280;53926;47.406;19.188;2023-03-22T06:39:49;100344.69;;;16.08;69.37
67013;BME280;53926;47.406;19.188;2023-03-22T06:42:17;100349.53;;;16.60;62.60
67013;BME280;53926;47.406;19.188;2023-03-22T06:44:44;100332.69;;;16.61;59.72
67013;BME280;53926;47.406;19.188;2023-03-22T06:47:11;100345.16;;;15.71;62.74
67013;BME280;53926;47.406;19.188;2023-03-22T06:49:38;100350.84;;;13.59;69.15
67013;BME280;53926;47.406;19.188;2023-03-22T06:52:05;100352.56;;;14.13;67.85
67013;BME280;53926;47.406;19.188;2023-03-22T06:54:32;100341.53;;;15.38;62.68
67013;BME280;53926;47.406;19.188;2023-03-22T06:56:59;100347.47;;;16.68;59.56
67013;BME280;53926;47.406;19.188;2023-03-22T06:59:26;100347.12;;;18.21;50.57
67013;BME280;53926;47.406;19.188;2023-03-22T07:01:53;100356.03;;;16.80;57.31
67013;BME280;53926;47.406;19.188;2023-03-22T07:04:19;100350.81;;;19.55;47.13
67013;BME280;53926;47.406;19.188;2023-03-22T07:06:46;100348.78;;;20.88;43.41
67013;BME280;53926;47.406;19.188;2023-03-22T07:09:13;100353.50;;;21.31;41.61
67013;BME280;53926;47.406;19.188;2023-03-22T07:11:39;100352.13;;;22.40;38.76
67013;BME280;53926;47.406;19.188;2023-03-22T07:14:06;100346.53;;;20.61;42.30
67013;BME280;53926;47.406;19.188;2023-03-22T07:16:33;100357.94;;;22.99;37.69
67013;BME280;53926;47.406;19.188;2023-03-22T07:18:59;100360.22;;;22.06;38.40
67013;BME280;53926;47.406;19.188;2023-03-22T07:21:26;100354.38;;;22.28;37.11
67013;BME280;53926;47.406;19.188;2023-03-22T07:23:53;100360.47;;;20.82;40.49
67013;BME280;53926;47.406;19.188;2023-03-22T07:26:20;100352.59;;;20.66;39.53
67013;BME280;53926;47.406;19.188;2023-03-22T07:28:47;100363.22;;;18.93;43.67
67013;BME280;53926;47.406;19.188;2023-03-22T07:31:14;100364.31;;;16.22;50.53
67013;BME280;53926;47.406;19.188;2023-03-22T07:33:41;100359.94;;;17.64;47.67
67013;BME280;53926;47.406;19.188;2023-03-22T07:36:08;100348.19;;;19.35;44.33
67013;BME280;53926;47.406;19.188;2023-03-22T07:38:35;100360.81;;;18.86;45.12
67013;BME280;53926;47.406;19.188;2023-03-22T07:41:03;100354.22;;;19.56;43.28
67013;BME280;53926;47.406;19.188;2023-03-22T07:43:29;100356.97;;;17.23;47.29
67013;BME280;53926;47.406;19.188;2023-03-22T07:45:56;100373.78;;;17.17;48.57
67013;BME280;53926;47.406;19.188;2023-03-22T07:48:23;100376.00;;;18.00;47.54
67013;BME280;53926;47.406;19.188;2023-03-22T07:50:53;100365.16;;;17.92;45.41
67013;BME280;53926;47.406;19.188;2023-03-22T07:53:20;100364.69;;;16.53;50.21
67013;BME280;53926;47.406;19.188;2023-03-22T07:55:47;100371.16;;;16.23;54.29
67013;BME280;53926;47.406;19.188;2023-03-22T07:58:14;100366.84;;;17.70;46.36
67013;BME280;53926;47.406;19.188;2023-03-22T08:00:40;100367.44;;;19.20;43.68
67013;BME280;53926;47.406;19.188;2023-03-22T08:03:10;100363.53;;;18.38;45.43
67013;BME280;53926;47.406;19.188;2023-03-22T08:05:41;100361.03;;;18.11;46.37
67013;BME280;53926;47.406;19.188;2023-03-22T08:08:08;100356.88;;;16.86;49.26
67013;BME280;53926;47.406;19.188;2023-03-22T08:10:36;100358.75;;;17.45;47.40
67013;BME280;53926;47.406;19.188;2023-03-22T08:13:03;100363.63;;;18.69;44.59
67013;BME280;53926;47.406;19.188;2023-03-22T08:15:30;100368.03;;;18.38;45.27
67013;BME280;53926;47.406;19.188;2023-03-22T08:17:57;100362.84;;;18.64;46.63
67013;BME280;53926;47.406;19.188;2023-03-22T08:20:24;100367.47;;;19.15;42.94
67013;BME280;53926;47.406;19.188;2023-03-22T08:22:53;100362.66;;;19.68;41.45
67013;BME280;53926;47.406;19.188;2023-03-22T08:25:20;100368.50;;;19.65;42.49
67013;BME280;53926;47.406;19.188;2023-03-22T08:27:47;100354.94;;;20.78;39.72
67013;BME280;53926;47.406;19.188;2023-03-22T08:30:14;100351.28;;;19.98;40.88
67013;BME280;53926;47.406;19.188;2023-03-22T08:32:41;100349.78;;;19.15;43.23
67013;BME280;53926;47.406;19.188;2023-03-22T08:35:08;100359.78;;;19.03;44.04
67013;BME280;53926;47.406;19.188;2023-03-22T08:37:35;100352.41;;;19.51;41.96
67013;BME280;53926;47.406;19.188;2023-03-22T08:40:02;100352.13;;;19.58;42.18
67013;BME280;53926;47.406;19.188;2023-03-22T08:42:31;100355.47;;;20.10;41.78
67013;BME280;53926;47.406;19.188;2023-03-22T08:44:58;100356.50;;;20.19;40.63
67013;BME280;53926;47.406;19.188;2023-03-22T08:47:25;100354.53;;;20.45;40.57
67013;BME280;53926;47.406;19.188;2023-03-22T08:49:51;100357.84;;;20.11;40.47
67013;BME280;53926;47.406;19.188;2023-03-22T08:52:18;100353.44;;;20.57;39.16
67013;BME280;53926;47.406;19.188;2023-03-22T08:54:45;100360.00;;;19.99;40.52
67013;BME280;53926;47.406;19.188;2023-03-22T08:57:11;100362.09;;;20.02;40.60
67013;BME280;53926;47.406;19.188;2023-03-22T08:59:39;100376.97;;;19.67;42.89
67013;BME280;53926;47.406;19.188;2023-03-22T09:02:07;100374.88;;;21.98;38.87
67013;BME280;53926;47.406;19.188;2023-03-22T09:04:34;100381.03;;;22.42;38.07
67013;BME280;53926;47.406;19.188;2023-03-22T09:07:00;100374.94;;;21.64;37.92
67013;BME280;53926;47.406;19.188;2023-03-22T09:09:27;100376.00;;;20.94;39.34
67013;BME280;53926;47.406;19.188;2023-03-22T09:11:53;100374.38;;;21.67;37.58
67013;BME280;53926;47.406;19.188;2023-03-22T09:14:20;100376.50;;;21.94;37.97
67013;BME280;53926;47.406;19.188;2023-03-22T09:16:47;100374.94;;;22.41;37.66
67013;BME280;53926;47.406;19.188;2023-03-22T09:19:13;100373.47;;;21.52;38.54
67013;BME280;53926;47.406;19.188;2023-03-22T09:21:40;100371.63;;;22.30;37.33
67013;BME280;53926;47.406;19.188;2023-03-22T09:24:08;100368.09;;;21.63;39.52
67013;BME280;53926;47.406;19.188;2023-03-22T09:26:34;100364.59;;;21.33;40.56
67013;BME280;53926;47.406;19.188;2023-03-22T09:29:02;100365.38;;;22.16;37.80
67013;BME280;53926;47.406;19.188;2023-03-22T09:31:29;100360.81;;;21.97;37.69
67013;BME280;53926;47.406;19.188;2023-03-22T09:33:55;100368.59;;;22.13;37.55
67013;BME280;53926;47.406;19.188;2023-03-22T09:36:24;100368.50;;;22.23;37.61
67013;BME280;53926;47.406;19.188;2023-03-22T09:38:50;100361.94;;;20.98;39.44
67013;BME280;53926;47.406;19.188;2023-03-22T09:41:23;100362.94;;;21.07;40.00
67013;BME280;53926;47.406;19.188;2023-03-22T09:43:54;100360.31;;;22.82;36.53
67013;BME280;53926;47.406;19.188;2023-03-22T09:46:31;100354.09;;;24.27;33.40
67013;BME280;53926;47.406;19.188;2023-03-22T09:49:02;100359.06;;;22.36;35.59
67013;BME280;53926;47.406;19.188;2023-03-22T09:51:40;100356.13;;;22.95;35.40
67013;BME280;53926;47.406;19.188;2023-03-22T09:54:16;100348.31;;;23.83;34.32
67013;BME280;53926;47.406;19.188;2023-03-22T09:56:49;100354.81;;;24.19;33.58
67013;BME280;53926;47.406;19.188;2023-03-22T09:59:29;100345.19;;;25.27;32.71
67013;BME280;53926;47.406;19.188;2023-03-22T10:02:00;100344.09;;;24.97;32.43
67013;BME280;53926;47.406;19.188;2023-03-22T10:10:14;100352.16;;;25.68;29.40
67013;BME280;53926;47.406;19.188;2023-03-22T10:12:58;100347.31;;;25.39;31.51
67013;BME280;53926;47.406;19.188;2023-03-22T10:15:36;100342.34;;;25.46;30.85
67013;BME280;53926;47.406;19.188;2023-03-22T10:18:07;100346.22;;;25.72;31.46
67013;BME280;53926;47.406;19.188;2023-03-22T10:23:20;100338.16;;;23.99;32.88
67013;BME280;53926;47.406;19.188;2023-03-22T10:25:51;100339.06;;;24.08;34.53
67013;BME280;53926;47.406;19.188;2023-03-22T10:28:25;100340.00;;;25.45;31.32
67013;BME280;53926;47.406;19.188;2023-03-22T10:30:55;100337.22;;;24.45;32.25
67013;BME280;53926;47.406;19.188;2023-03-22T10:33:38;100335.41;;;24.69;33.46
67013;BME280;53926;47.406;19.188;2023-03-22T10:36:11;100335.34;;;23.49;35.09
67013;BME280;53926;47.406;19.188;2023-03-22T10:38:48;100337.56;;;23.74;34.20
67013;BME280;53926;47.406;19.188;2023-03-22T10:41:18;100335.19;;;23.12;34.16
67013;BME280;53926;47.406;19.188;2023-03-22T10:43:49;100343.94;;;22.75;34.92
67013;BME280;53926;47.406;19.188;2023-03-22T10:46:20;100340.22;;;23.14;34.72
67013;BME280;53926;47.406;19.188;2023-03-22T10:48:50;100340.22;;;24.30;32.16
67013;BME280;53926;47.406;19.188;2023-03-22T10:51:27;100335.44;;;25.45;31.75
67013;BME280;53926;47.406;19.188;2023-03-22T10:53:55;100333.06;;;24.53;32.38
67013;BME280;53926;47.406;19.188;2023-03-22T10:56:24;100335.47;;;24.27;33.43
67013;BME280;53926;47.406;19.188;2023-03-22T10:58:51;100339.44;;;23.27;35.17
67013;BME280;53926;47.406;19.188;2023-03-22T11:04:15;100321.19;;;21.87;36.43
67013;BME280;53926;47.406;19.188;2023-03-22T11:06:50;100317.34;;;21.50;37.46
67013;BME280;53926;47.406;19.188;2023-03-22T11:09:21;100312.31;;;20.80;41.07
67013;BME280;53926;47.406;19.188;2023-03-22T11:11:57;100318.94;;;20.27;40.75
67013;BME280;53926;47.406;19.188;2023-03-22T11:14:32;100313.47;;;20.58;40.71
67013;BME280;53926;47.406;19.188;2023-03-22T11:17:08;100317.25;;;19.81;41.84
67013;BME280;53926;47.406;19.188;2023-03-22T11:19:37;100308.03;;;19.43;42.24
67013;BME280;53926;47.406;19.188;2023-03-22T11:22:23;100307.22;;;19.53;41.70
67013;BME280;53926;47.406;19.188;2023-03-22T11:24:51;100303.75;;;18.54;44.81
67013;BME280;53926;47.406;19.188;2023-03-22T11:27:29;100301.66;;;18.62;46.14
67013;BME280;53926;47.406;19.188;2023-03-22T11:30:19;100296.69;;;18.81;45.30
67013;BME280;53926;47.406;19.188;2023-03-22T11:32:46;100287.59;;;18.35;49.28
67013;BME280;53926;47.406;19.188;2023-03-22T11:37:48;100298.22;;;18.56;46.15
67013;BME280;53926;47.406;19.188;2023-03-22T11:40:19;100289.97;;;18.42;46.39
67013;BME280;53926;47.406;19.188;2023-03-22T11:42:48;100294.69;;;18.19;48.91
67013;BME280;53926;47.406;19.188;2023-03-22T11:45:30;100293.19;;;17.43;49.96
67013;BME280;53926;47.406;19.188;2023-03-22T11:48:04;100284.72;;;17.36;50.53
67013;BME280;53926;47.406;19.188;2023-03-22T11:50:34;100285.41;;;17.21;51.73
67013;BME280;53926;47.406;19.188;2023-03-22T11:53:05;100284.87;;;16.65;53.25
67013;BME280;53926;47.406;19.188;2023-03-22T11:55:33;100281.72;;;16.62;54.50
67013;BME280;53926;47.406;19.188;2023-03-22T11:58:02;100277.00;;;16.65;52.94
67013;BME280;53926;47.406;19.188;2023-03-22T12:00:32;100282.13;;;16.05;55.06
67013;BME280;53926;47.406;19.188;2023-03-22T12:03:13;100275.97;;;16.16;55.21
67013;BME280;53926;47.406;19.188;2023-03-22T12:05:43;100280.47;;;16.21;55.61
67013;BME280;53926;47.406;19.188;2023-03-22T12:11:04;100274.72;;;15.46;57.85
67013;BME280;53926;47.406;19.188;2023-03-22T12:13:48;100280.13;;;15.73;57.75
67013;BME280;53926;47.406;19.188;2023-03-22T12:16:21;100272.41;;;15.49;59.20
67013;BME280;53926;47.406;19.188;2023-03-22T12:19:08;100283.63;;;15.45;59.41
67013;BME280;53926;47.406;19.188;2023-03-22T12:21:39;100273.53;;;15.53;59.84
67013;BME280;53926;47.406;19.188;2023-03-22T12:24:27;100282.38;;;15.47;61.58
67013;BME280;53926;47.406;19.188;2023-03-22T12:26:57;100288.06;;;15.61;60.34
67013;BME280;53926;47.406;19.188;2023-03-22T12:29:25;100285.91;;;15.75;59.67
67013;BME280;53926;47.406;19.188;2023-03-22T12:32:09;100288.06;;;15.78;59.36
67013;BME280;53926;47.406;19.188;2023-03-22T12:34:40;100288.72;;;15.68;58.66
67013;BME280;53926;47.406;19.188;2023-03-22T12:37:14;100284.81;;;15.54;59.84
67013;BME280;53926;47.406;19.188;2023-03-22T12:39:57;100279.31;;;15.55;58.34
67013;BME280;53926;47.406;19.188;2023-03-22T12:42:35;100277.44;;;16.07;57.31
67013;BME280;53926;47.406;19.188;2023-03-22T12:45:17;100281.19;;;16.38;56.99
67013;BME280;53926;47.406;19.188;2023-03-22T12:47:50;100284.97;;;16.75;53.59
67013;BME280;53926;47.406;19.188;2023-03-22T12:50:22;100278.47;;;16.83;54.58
67013;BME280;53926;47.406;19.188;2023-03-22T12:52:51;100278.81;;;17.61;51.74
67013;BME280;53926;47.406;19.188;2023-03-22T12:55:29;100283.47;;;17.44;51.66
67013;BME280;53926;47.406;19.188;2023-03-22T12:57:56;100274.69;;;18.29;49.98
67013;BME280;53926;47.406;19.188;2023-03-22T13:00:32;100260.50;;;18.50;50.67
67013;BME280;53926;47.406;19.188;2023-03-22T13:05:59;100258.19;;;18.95;46.24
67013;BME280;53926;47.406;19.188;2023-03-22T13:11:31;100254.22;;;19.08;46.19
67013;BME280;53926;47.406;19.188;2023-03-22T13:13:58;100257.66;;;19.24;46.13
67013;BME280;53926;47.406;19.188;2023-03-22T13:16:49;100258.78;;;18.08;49.50
67013;BME280;53926;47.406;19.188;2023-03-22T13:19:27;100252.81;;;18.38;49.64
67013;BME280;53926;47.406;19.188;2023-03-22T13:22:16;100241.25;;;19.22;48.47
67013;BME280;53926;47.406;19.188;2023-03-22T13:24:57;100239.69;;;19.26;44.00
67013;BME280;53926;47.406;19.188;2023-03-22T13:27:56;100234.69;;;19.09;46.18
67013;BME280;53926;47.406;19.188;2023-03-22T13:30:50;100236.81;;;20.03;42.73
67013;BME280;53926;47.406;19.188;2023-03-22T13:33:27;100232.00;;;20.15;41.86
67013;BME280;53926;47.406;19.188;2023-03-22T13:35:57;100231.41;;;20.24;41.18
67013;BME280;53926;47.406;19.188;2023-03-22T13:38:42;100222.75;;;19.42;42.44
67013;BME280;53926;47.406;19.188;2023-03-22T13:41:26;100229.28;;;19.65;42.56
67013;BME280;53926;47.406;19.188;2023-03-22T13:43:58;100231.31;;;19.99;41.13
67013;BME280;53926;47.406;19.188;2023-03-22T13:46:29;100231.53;;;19.22;43.35
67013;BME280;53926;47.406;19.188;2023-03-22T13:49:41;100234.78;;;19.74;39.68
67013;BME280;53926;47.406;19.188;2023-03-22T13:52:45;100233.41;;;20.03;39.49
67013;BME280;53926;47.406;19.188;2023-03-22T13:58:03;100212.38;;;19.72;40.28
67013;BME280;53926;47.406;19.188;2023-03-22T14:03:00;100206.66;;;20.09;39.69